Flight Track Log - Related Links

Times and Time Zones

All times are in EDT time to prevent confusion due to time zone crossing. See the SKW4542 flight status page for this flight to view local times or setup timezone preferences in your user account.


Time Position Orientation Groundspeed Altitude Reporting Facility
EDT Latitude Longitude Course Direction KTS MPH feet Rate Location/Type
Wed 08:43:03 PM 43.4544 -112.1269 210° Southwest 178 205 7,500  Level Salt Lake Center
Wed 08:44:05 PM 43.3903 -112.1847 213° Southwest 227 261 10,300 2,613 Climbing Salt Lake Center
Wed 08:45:00 PM 43.0193 -112.0533 214° Southwest  Level Estimated
Wed 08:45:07 PM 43.3269 -112.2403 213° Southwest 266 306 12,900  Level Salt Lake Center
Wed 08:46:00 PM 42.9991 -112.1625 256° West  Level FlightAware Approximate
Wed 08:46:09 PM 43.2467 -112.3153 214° Southwest 296 341 15,300  Level Salt Lake Center
Wed 08:47:00 PM 42.9787 -112.2717 256° West  Level FlightAware Approximate
Wed 08:47:10 PM 43.1708 -112.3836 213° Southwest 322 371 17,200  Level Salt Lake Center
Wed 08:48:12 PM 43.0769 -112.4647 212° Southwest 347 399 19,700 1,984 Climbing Salt Lake Center
Wed 08:49:14 PM 42.9961 -112.5347 212° Southwest 357 411 21,300 1,548 Climbing Salt Lake Center
Wed 08:50:16 PM 42.9133 -112.6083 213° Southwest 367 422 22,900 1,317 Climbing Salt Lake Center
Wed 08:51:17 PM 42.7978 -112.6300 188° South 400 460 24,000 537 Climbing Salt Lake Center
Wed 08:52:19 PM 42.6831 -112.5964 168° South 413 475 24,000  Level Salt Lake Center
Wed 08:53:21 PM 42.5753 -112.5628 167° South 400 460 24,000  Level Salt Lake Center
Wed 08:54:23 PM 42.4747 -112.5336 168° South 374 430 24,000  Level Salt Lake Center
Wed 08:55:24 PM 42.3747 -112.5103 170° South 368 423 24,000  Level Salt Lake Center
Wed 08:56:26 PM 42.2739 -112.5175 183° South 364 419 24,000 -97 Level Salt Lake Center
Wed 08:57:28 PM 42.1528 -112.5256 183° South 364 419 23,800 -1,024 Descending Salt Lake Center
Wed 08:58:29 PM 42.0569 -112.5519 192° South 353 406 21,900 -1,902 Descending Salt Lake Center
Wed 08:59:31 PM 41.9644 -112.5781 192° South 343 395 19,900 -1,415 Descending Salt Lake Center
Wed 09:00:32 PM 41.8733 -112.6047 192° South 337 388 19,000 -439 Descending Salt Lake Center
Wed 09:01:34 PM 41.7806 -112.6344 193° South 343 395 19,000  Level Salt Lake Center
Wed 09:02:36 PM 41.6911 -112.6606 192° South 335 386 19,000  Level Salt Lake Center
Wed 09:02:56 PM 41.6519 -112.6403 159° South 336 387 19,000 -842 Level Salt Lake Center
Wed 09:03:33 PM 41.6114 -112.5850 134° Southeast 345 397 18,200 -1,163 Descending Salt Lake Center
Wed 09:04:34 PM 41.5400 -112.4917 136° Southeast 360 414 17,100 -621 Descending Salt Lake Center
Wed 09:05:29 PM 41.4631 -112.4261 147° Southeast 362 417 17,000 -797 Descending Salt Lake Center
Wed 09:06:42 PM 41.3536 -112.3533 153° Southeast 369 425 15,400 -938 Descending Salt Lake Center
Wed 09:07:37 PM 41.2742 -112.2928 150° Southeast 373 429 15,000 -220 Descending Salt Lake Center
Wed 09:08:31 PM 41.1917 -112.2322 151° Southeast 369 425 15,000 -365 Level Salt Lake Center
Wed 09:09:32 PM 41.1014 -112.1661 151° Southeast 369 425 14,300 -711 Descending Salt Lake Center
Wed 09:09:47 PM 41.0853 -112.1558 154° Southeast 370 426 14,100 -1,082 Descending Salt Lake Center
Wed 09:10:33 PM 40.9994 -112.1294 167° South 355 409 13,200 -984 Descending Salt Lake Center
Wed 09:10:48 PM 40.9903 -112.1286 176° South 355 409 13,100 -197 Descending Salt Lake Center
Wed 09:11:34 PM 40.9033 -112.1108 171° South 338 389 13,000 -97 Descending Salt Lake Center
Wed 09:11:50 PM 40.8808 -112.1067 172° South 322 371 13,000 -689 Level Salt Lake Center
Wed 09:12:35 PM 40.8286 -112.1022 176° South 264 304 12,300 -984 Descending Salt Lake Center
Wed 09:12:51 PM 40.8089 -112.0978 170° South 262 302 12,000 -295 Descending Salt Lake Center
Wed 09:13:36 PM 40.7608 -112.0969 179° South 223 257 12,000  Level Salt Lake Center
Wed 09:13:53 PM 40.7481 -112.0917 163° South 222 255 12,000 -1,100 Level Salt Lake Center
Wed 09:14:36 PM 40.7011 -112.0886 177° South 212 244 10,900 -1,452 Descending Salt Lake Center
Wed 09:14:55 PM 40.6897 -112.0850 166° South 211 243 10,500 -1,475 Descending Salt Lake Center
Wed 09:15:37 PM 40.6439 -112.0825 178° South 210 242 9,400 -1,180 Descending Salt Lake Center
Wed 09:15:56 PM 40.6319 -112.0781 164° South 210 242 9,300 -393 Descending Salt Lake Center
Wed 09:16:38 PM 40.5878 -112.0706 173° South 214 246 9,000 -290 Descending Salt Lake Center
Wed 09:16:58 PM 40.5831 -112.0528 109° East 209 241 9,000 90 Level Salt Lake Center
Wed 09:17:45 PM 40.5903 -111.9850 82° East 211 243 9,100 -444 Climbing Salt Lake Center
Wed 09:18:46 PM 40.6417 -111.9844 360° North 192 221 8,200 -1,105 Descending Salt Lake Center
Wed 09:19:01 PM 40.6558 -111.9825 North 189 217 7,700 -2,000 Descending Salt Lake Center

Login

Don't have an account? Register now (free) for customized features, flight alerts, and more!